Bitter Creek, Wyoming
Current Conditions -  °F | °C
As of 1:54 AM on Saturday 25 Oct 2014 (Local Time) from KRKS Reporting Station
Clear Clear  
Wind Chill: 46°   Ceiling: Unl
Heat Index: 46°   Visibility: 10mi
Dew Point: 27°   Wind: 0mph
Humidity: 47%   Direction: NA
Pressure: 30.28"   Gusts: NA
Location:  41.6045°N, 108.954°W
Report Text: KRKS 250754Z AUTO 00000KT 10SM CLR 08/M03 A3028 RMK AO2 SLP193 T00781028 $
Loading
Personal Weather Stations






























Interactive Weather Map
Tropical Storm Tracking
New forecast layout! Learn more

10-Day Weather Forecast

Advertisements
Track Severe Weather on mobile